createdAt,value
2018-02-07T00:00:17.403Z,1002.9
2018-02-07T00:01:19.115Z,1002.9
2018-02-07T00:02:20.726Z,1002.9
2018-02-07T00:03:22.319Z,1002.8
2018-02-07T00:04:23.932Z,1002.8
2018-02-07T00:05:25.970Z,1002.8
2018-02-07T00:06:28.019Z,1002.8
2018-02-07T00:07:29.624Z,1002.8
2018-02-07T00:08:31.536Z,1002.8
2018-02-07T00:09:33.135Z,1002.8
2018-02-07T00:10:34.822Z,1002.8
2018-02-07T00:11:36.423Z,1002.8
2018-02-07T00:12:38.029Z,1002.8
2018-02-07T00:13:39.637Z,1002.8
2018-02-07T00:14:41.247Z,1002.8
2018-02-07T00:15:43.356Z,1002.8
2018-02-07T00:16:45.082Z,1002.8
2018-02-07T00:17:46.685Z,1002.8
2018-02-07T00:18:48.287Z,1002.8
2018-02-07T00:19:50.364Z,1002.8
2018-02-07T00:20:51.926Z,1002.9
2018-02-07T00:21:53.583Z,1002.9
2018-02-07T00:22:55.275Z,1002.8
2018-02-07T00:23:57.090Z,1002.9
2018-02-07T00:24:58.694Z,1002.8
2018-02-07T00:26:00.401Z,1002.9
2018-02-07T00:27:02.180Z,1002.8
2018-02-07T00:28:03.786Z,1002.9
2018-02-07T00:29:05.548Z,1002.9
2018-02-07T00:30:07.339Z,1002.9
2018-02-07T00:31:09.120Z,1002.9
2018-02-07T00:32:10.729Z,1002.9
2018-02-07T00:33:12.334Z,1002.9
2018-02-07T00:34:13.930Z,1002.9
2018-02-07T00:35:15.672Z,1003.0
2018-02-07T00:36:17.434Z,1003.0
2018-02-07T00:37:19.036Z,1003.0
2018-02-07T00:38:20.726Z,1003.0
2018-02-07T00:39:22.331Z,1003.0
2018-02-07T00:40:23.940Z,1003.0
2018-02-07T00:41:26.297Z,1003.0
2018-02-07T00:42:27.896Z,1002.9
2018-02-07T00:43:29.494Z,1002.9
2018-02-07T00:44:31.103Z,1002.9
2018-02-07T00:45:32.703Z,1003.0
2018-02-07T00:46:34.356Z,1002.9
2018-02-07T00:47:36.251Z,1002.9
2018-02-07T00:48:38.530Z,1002.9
2018-02-07T00:49:40.184Z,1002.9
2018-02-07T00:50:42.068Z,1002.9
2018-02-07T00:51:43.671Z,1002.9
2018-02-07T00:52:45.480Z,1002.9
2018-02-07T00:53:47.098Z,1002.9
2018-02-07T00:54:48.699Z,1003.0
2018-02-07T00:55:50.306Z,1003.0
2018-02-07T00:56:51.907Z,1002.9
2018-02-07T00:57:53.507Z,1002.9
2018-02-07T00:58:56.032Z,1002.9
2018-02-07T00:59:57.667Z,1002.9
2018-02-07T01:00:59.272Z,1002.9
2018-02-07T01:02:00.877Z,1003.0
2018-02-07T01:03:03.137Z,1003.0
2018-02-07T01:04:04.759Z,1003.0
2018-02-07T01:05:06.360Z,1003.0
2018-02-07T01:06:07.962Z,1003.0
2018-02-07T01:07:09.561Z,1003.0
2018-02-07T01:08:11.169Z,1003.0
2018-02-07T01:09:12.768Z,1003.0
2018-02-07T01:10:15.266Z,1003.0
2018-02-07T01:11:16.867Z,1003.0
2018-02-07T01:12:18.468Z,1003.0
2018-02-07T01:13:20.074Z,1003.0
2018-02-07T01:14:21.673Z,1003.1
2018-02-07T01:15:23.277Z,1003.1
2018-02-07T01:16:24.876Z,1003.1
2018-02-07T01:17:26.481Z,1003.1
2018-02-07T01:18:28.086Z,1003.1
2018-02-07T01:19:29.693Z,1003.1
2018-02-07T01:20:31.290Z,1003.1
2018-02-07T01:21:32.897Z,1003.1
2018-02-07T01:22:34.496Z,1003.1
2018-02-07T01:23:36.103Z,1003.1
2018-02-07T01:24:37.706Z,1003.0
2018-02-07T01:25:39.312Z,1003.1
2018-02-07T01:26:40.917Z,1003.1
2018-02-07T01:27:42.516Z,1003.1
2018-02-07T01:28:44.119Z,1003.1
2018-02-07T01:29:45.726Z,1003.1
2018-02-07T01:30:47.332Z,1003.1
2018-02-07T01:31:48.935Z,1003.2
2018-02-07T01:32:50.540Z,1003.2
2018-02-07T01:33:52.145Z,1003.2
2018-02-07T01:34:53.751Z,1003.2
2018-02-07T01:35:55.349Z,1003.2
2018-02-07T01:36:56.955Z,1003.2
2018-02-07T01:37:58.556Z,1003.2
2018-02-07T01:39:00.163Z,1003.2
2018-02-07T01:40:01.768Z,1003.2
2018-02-07T01:41:03.366Z,1003.2
2018-02-07T01:42:04.974Z,1003.2
2018-02-07T01:43:06.574Z,1003.2
2018-02-07T01:44:08.181Z,1003.3
2018-02-07T01:45:09.786Z,1003.2
2018-02-07T01:46:11.390Z,1003.3
2018-02-07T01:47:12.994Z,1003.3
2018-02-07T01:48:14.599Z,1003.2
2018-02-07T01:49:16.204Z,1003.3
2018-02-07T01:50:17.804Z,1003.3
2018-02-07T01:51:19.406Z,1003.2
2018-02-07T01:52:21.016Z,1003.2
2018-02-07T01:53:22.617Z,1003.2
2018-02-07T01:54:24.226Z,1003.2
2018-02-07T01:55:25.826Z,1003.2
2018-02-07T01:56:27.431Z,1003.2
2018-02-07T01:57:29.034Z,1003.2
2018-02-07T01:58:30.634Z,1003.2
2018-02-07T01:59:32.237Z,1003.2
2018-02-07T02:00:33.844Z,1003.1
2018-02-07T02:01:35.448Z,1003.1
2018-02-07T02:02:37.052Z,1003.1
2018-02-07T02:03:38.654Z,1003.1
2018-02-07T02:04:40.262Z,1003.1
2018-02-07T02:05:41.863Z,1003.1
2018-02-07T02:06:43.470Z,1003.1
2018-02-07T02:07:45.077Z,1003.1
2018-02-07T02:08:46.683Z,1003.0
2018-02-07T02:09:48.285Z,1003.0
2018-02-07T02:10:49.885Z,1003.0
2018-02-07T02:11:51.488Z,1003.0
2018-02-07T02:12:53.094Z,1003.0
2018-02-07T02:13:54.693Z,1003.0
2018-02-07T02:14:56.304Z,1003.1
2018-02-07T02:15:57.910Z,1003.0
2018-02-07T02:16:59.507Z,1003.1
2018-02-07T02:18:01.112Z,1003.1
2018-02-07T02:19:02.712Z,1003.0
2018-02-07T02:20:04.320Z,1003.0
2018-02-07T02:21:05.922Z,1003.0
2018-02-07T02:22:07.531Z,1003.0
2018-02-07T02:23:09.133Z,1003.0
2018-02-07T02:24:10.741Z,1003.0
2018-02-07T02:25:12.344Z,1003.0
2018-02-07T02:26:13.946Z,1003.0
2018-02-07T02:27:15.553Z,1003.0
2018-02-07T02:28:17.159Z,1003.0
2018-02-07T02:29:18.760Z,1003.0
2018-02-07T02:30:20.368Z,1003.0
2018-02-07T02:31:21.967Z,1003.0
2018-02-07T02:32:23.572Z,1003.1
2018-02-07T02:33:25.173Z,1003.1
2018-02-07T02:34:27.725Z,1003.1
2018-02-07T02:35:29.324Z,1003.1
2018-02-07T02:36:30.988Z,1003.1
2018-02-07T02:37:32.596Z,1003.1
2018-02-07T02:38:34.196Z,1003.1
2018-02-07T02:39:35.795Z,1003.1
2018-02-07T02:40:38.188Z,1003.1
2018-02-07T02:41:39.787Z,1003.1
2018-02-07T02:42:41.391Z,1003.1
2018-02-07T02:43:42.999Z,1003.1
2018-02-07T02:44:44.604Z,1003.1
2018-02-07T02:45:46.205Z,1003.1
2018-02-07T02:46:47.809Z,1003.1
2018-02-07T02:47:49.414Z,1003.1
2018-02-07T02:48:51.015Z,1003.1
2018-02-07T02:49:52.624Z,1003.1
2018-02-07T02:50:54.227Z,1003.1
2018-02-07T02:51:55.837Z,1003.1
2018-02-07T02:52:57.434Z,1003.1
2018-02-07T02:53:59.042Z,1003.1
2018-02-07T02:55:00.640Z,1003.0
2018-02-07T02:56:02.252Z,1003.0
2018-02-07T02:57:03.853Z,1003.1
2018-02-07T02:58:05.462Z,1003.1
2018-02-07T02:59:07.059Z,1003.1
2018-02-07T03:00:08.663Z,1003.1
2018-02-07T03:01:10.267Z,1003.1
2018-02-07T03:02:11.870Z,1003.0
2018-02-07T03:03:13.471Z,1003.0
2018-02-07T03:04:15.079Z,1003.0
2018-02-07T03:05:16.686Z,1003.0
2018-02-07T03:06:18.289Z,1003.0
2018-02-07T03:07:19.895Z,1002.9
2018-02-07T03:08:21.494Z,1003.0
2018-02-07T03:09:23.102Z,1003.0
2018-02-07T03:10:24.703Z,1003.0
2018-02-07T03:11:26.310Z,1003.0
2018-02-07T03:12:27.910Z,1003.0
2018-02-07T03:13:29.518Z,1003.0
2018-02-07T03:14:31.115Z,1003.0
2018-02-07T03:15:32.722Z,1003.0
2018-02-07T03:16:34.322Z,1003.0
2018-02-07T03:17:35.928Z,1003.1
2018-02-07T03:18:37.530Z,1003.1
2018-02-07T03:19:39.136Z,1003.1
2018-02-07T03:20:40.739Z,1003.1
2018-02-07T03:21:42.344Z,1003.1
2018-02-07T03:22:43.945Z,1003.1
2018-02-07T03:23:45.545Z,1003.1
2018-02-07T03:24:47.155Z,1003.1
2018-02-07T03:25:48.758Z,1003.1
2018-02-07T03:26:50.360Z,1003.1
2018-02-07T03:27:51.963Z,1003.1
2018-02-07T03:28:53.567Z,1003.1
2018-02-07T03:29:55.172Z,1003.1
2018-02-07T03:30:56.771Z,1003.1
2018-02-07T03:31:58.374Z,1003.2
2018-02-07T03:32:59.982Z,1003.1
2018-02-07T03:34:01.590Z,1003.2
2018-02-07T03:35:03.192Z,1003.1
2018-02-07T03:36:04.794Z,1003.2
2018-02-07T03:37:06.400Z,1003.2
2018-02-07T03:38:07.999Z,1003.2
2018-02-07T03:39:09.606Z,1003.2
2018-02-07T03:40:11.210Z,1003.2
2018-02-07T03:41:12.853Z,1003.2
2018-02-07T03:42:14.419Z,1003.2
2018-02-07T03:43:16.022Z,1003.2
2018-02-07T03:44:17.624Z,1003.2
2018-02-07T03:45:19.228Z,1003.2
2018-02-07T03:46:20.834Z,1003.2
2018-02-07T03:47:22.436Z,1003.2
2018-02-07T03:48:24.041Z,1003.2
2018-02-07T03:49:25.644Z,1003.2
2018-02-07T03:50:27.250Z,1003.3
2018-02-07T03:51:28.851Z,1003.2
2018-02-07T03:52:30.456Z,1003.2
2018-02-07T03:53:32.057Z,1003.3
2018-02-07T03:54:33.662Z,1003.3
2018-02-07T03:55:35.263Z,1003.2
2018-02-07T03:56:36.871Z,1003.2
2018-02-07T03:57:38.469Z,1003.2
2018-02-07T03:58:40.071Z,1003.2
2018-02-07T03:59:41.672Z,1003.2
2018-02-07T04:00:43.281Z,1003.2
2018-02-07T04:01:44.886Z,1003.2
2018-02-07T04:02:46.490Z,1003.2
2018-02-07T04:03:48.098Z,1003.3
2018-02-07T04:04:49.702Z,1003.3
2018-02-07T04:05:51.302Z,1003.2
2018-02-07T04:06:52.901Z,1003.2
2018-02-07T04:07:54.508Z,1003.2
2018-02-07T04:08:56.112Z,1003.2
2018-02-07T04:09:57.715Z,1003.3
2018-02-07T04:10:59.317Z,1003.3
2018-02-07T04:12:00.921Z,1003.3
2018-02-07T04:13:02.525Z,1003.3
2018-02-07T04:14:04.127Z,1003.3
2018-02-07T04:15:05.727Z,1003.3
2018-02-07T04:16:07.335Z,1003.3
2018-02-07T04:17:08.942Z,1003.2
2018-02-07T04:18:10.550Z,1003.2
2018-02-07T04:19:12.149Z,1003.2
2018-02-07T04:20:13.756Z,1003.2
2018-02-07T04:21:15.360Z,1003.2
2018-02-07T04:22:16.961Z,1003.2
2018-02-07T04:23:18.564Z,1003.2
2018-02-07T04:24:20.171Z,1003.2
2018-02-07T04:25:21.778Z,1003.2
2018-02-07T04:26:23.376Z,1003.2
2018-02-07T04:27:24.976Z,1003.2
2018-02-07T04:28:26.576Z,1003.2
2018-02-07T04:29:28.181Z,1003.3
2018-02-07T04:30:29.788Z,1003.3
2018-02-07T04:31:31.392Z,1003.3
2018-02-07T04:32:33.000Z,1003.3
2018-02-07T04:33:34.600Z,1003.3
2018-02-07T04:34:36.202Z,1003.2
2018-02-07T04:35:37.803Z,1003.3
2018-02-07T04:36:39.409Z,1003.3
2018-02-07T04:37:41.009Z,1003.2
2018-02-07T04:38:42.616Z,1003.2
2018-02-07T04:39:44.218Z,1003.3
2018-02-07T04:40:45.823Z,1003.3
2018-02-07T04:41:47.423Z,1003.3
2018-02-07T04:42:49.028Z,1003.3
2018-02-07T04:43:50.628Z,1003.4
2018-02-07T04:44:52.231Z,1003.4
2018-02-07T04:45:53.843Z,1003.3
2018-02-07T04:46:55.440Z,1003.4
2018-02-07T04:47:57.041Z,1003.4
2018-02-07T04:48:59.247Z,1003.4
2018-02-07T04:50:00.851Z,1003.4
2018-02-07T04:51:02.453Z,1003.3
2018-02-07T04:52:04.057Z,1003.3
2018-02-07T04:53:05.661Z,1003.4
2018-02-07T04:54:07.271Z,1003.3
2018-02-07T04:55:08.865Z,1003.4
2018-02-07T04:56:10.478Z,1003.4
2018-02-07T04:57:12.071Z,1003.4
2018-02-07T04:58:13.681Z,1003.4
2018-02-07T04:59:15.282Z,1003.4
2018-02-07T05:00:16.890Z,1003.4
2018-02-07T05:01:18.496Z,1003.4
2018-02-07T05:02:20.096Z,1003.3
2018-02-07T05:03:21.702Z,1003.4
2018-02-07T05:04:23.309Z,1003.4
2018-02-07T05:05:24.909Z,1003.4
2018-02-07T05:06:26.513Z,1003.4
2018-02-07T05:07:28.116Z,1003.4
2018-02-07T05:08:29.720Z,1003.4
2018-02-07T05:09:31.324Z,1003.4
2018-02-07T05:10:32.929Z,1003.4
2018-02-07T05:11:34.536Z,1003.4
2018-02-07T05:12:36.130Z,1003.4
2018-02-07T05:13:37.737Z,1003.4
2018-02-07T05:14:39.343Z,1003.4
2018-02-07T05:15:40.945Z,1003.4
2018-02-07T05:16:42.546Z,1003.4
2018-02-07T05:17:44.149Z,1003.4
2018-02-07T05:18:45.751Z,1003.4
2018-02-07T05:19:47.358Z,1003.4
2018-02-07T05:20:48.958Z,1003.4
2018-02-07T05:21:50.565Z,1003.4
2018-02-07T05:22:52.167Z,1003.3
2018-02-07T05:23:53.763Z,1003.4
2018-02-07T05:24:55.367Z,1003.4
2018-02-07T05:25:56.974Z,1003.4
2018-02-07T05:26:58.580Z,1003.4
2018-02-07T05:28:00.183Z,1003.5
2018-02-07T05:29:01.788Z,1003.5
2018-02-07T05:30:03.394Z,1003.5
2018-02-07T05:31:04.998Z,1003.5
2018-02-07T05:32:06.597Z,1003.5
2018-02-07T05:33:08.207Z,1003.5
2018-02-07T05:34:09.810Z,1003.5
2018-02-07T05:35:11.417Z,1003.5
2018-02-07T05:36:13.019Z,1003.5
2018-02-07T05:37:14.631Z,1003.5
2018-02-07T05:38:16.225Z,1003.5
2018-02-07T05:39:17.852Z,1003.5
2018-02-07T05:40:19.434Z,1003.5
2018-02-07T05:41:21.032Z,1003.5
2018-02-07T05:42:22.643Z,1003.5
2018-02-07T05:43:24.240Z,1003.5
2018-02-07T05:44:25.856Z,1003.5
2018-02-07T05:45:27.444Z,1003.5
2018-02-07T05:46:29.051Z,1003.5
2018-02-07T05:47:30.650Z,1003.5
2018-02-07T05:48:32.257Z,1003.6
2018-02-07T05:49:33.862Z,1003.5
2018-02-07T05:50:35.464Z,1003.5
2018-02-07T05:51:37.074Z,1003.6
2018-02-07T05:52:38.671Z,1003.6
2018-02-07T05:53:40.277Z,1003.6
2018-02-07T05:54:41.874Z,1003.5
2018-02-07T05:55:43.482Z,1003.6
2018-02-07T05:56:45.139Z,1003.6
2018-02-07T05:57:46.689Z,1003.6
2018-02-07T05:58:48.289Z,1003.6
2018-02-07T05:59:49.895Z,1003.6
2018-02-07T06:00:51.492Z,1003.6
2018-02-07T06:01:53.100Z,1003.7
2018-02-07T06:02:54.700Z,1003.7
2018-02-07T06:03:56.308Z,1003.6
2018-02-07T06:04:57.909Z,1003.7
2018-02-07T06:05:59.517Z,1003.6
2018-02-07T06:07:01.121Z,1003.6
2018-02-07T06:08:02.714Z,1003.6
2018-02-07T06:09:04.319Z,1003.7
2018-02-07T06:10:05.922Z,1003.7
2018-02-07T06:11:07.522Z,1003.7
2018-02-07T06:12:09.125Z,1003.7
2018-02-07T06:13:10.732Z,1003.7
2018-02-07T06:14:12.334Z,1003.7
2018-02-07T06:15:13.933Z,1003.8
2018-02-07T06:16:15.535Z,1003.7
2018-02-07T06:17:17.141Z,1003.8
2018-02-07T06:18:18.745Z,1003.8
2018-02-07T06:19:20.346Z,1003.8
2018-02-07T06:20:21.948Z,1003.8
2018-02-07T06:21:23.551Z,1003.7
2018-02-07T06:22:25.154Z,1003.7
2018-02-07T06:23:26.753Z,1003.7
2018-02-07T06:24:28.354Z,1003.8
2018-02-07T06:25:29.960Z,1003.8
2018-02-07T06:26:31.566Z,1003.8
2018-02-07T06:27:33.167Z,1003.8
2018-02-07T06:28:34.768Z,1003.8
2018-02-07T06:29:36.373Z,1003.7
2018-02-07T06:30:37.976Z,1003.8
2018-02-07T06:31:39.573Z,1003.8
2018-02-07T06:32:41.200Z,1003.8
2018-02-07T06:33:42.782Z,1003.8
2018-02-07T06:34:44.389Z,1003.8
2018-02-07T06:35:45.989Z,1003.8
2018-02-07T06:36:47.587Z,1003.8
2018-02-07T06:37:49.196Z,1003.8
2018-02-07T06:38:50.805Z,1003.8
2018-02-07T06:39:52.821Z,1003.8
2018-02-07T06:40:54.396Z,1003.8
2018-02-07T06:41:56.057Z,1003.8
2018-02-07T06:42:57.658Z,1003.8
2018-02-07T06:43:59.264Z,1003.8
2018-02-07T06:45:00.866Z,1003.9
2018-02-07T06:46:02.472Z,1003.8
2018-02-07T06:47:04.086Z,1003.8
2018-02-07T06:48:05.694Z,1003.8
2018-02-07T06:49:07.297Z,1003.8
2018-02-07T06:50:08.932Z,1003.8
2018-02-07T06:51:10.534Z,1003.8
2018-02-07T06:52:12.141Z,1003.9
2018-02-07T06:53:14.370Z,1003.9
2018-02-07T06:54:15.978Z,1003.8
2018-02-07T06:55:17.587Z,1003.8
2018-02-07T06:56:19.190Z,1003.8
2018-02-07T06:57:20.794Z,1003.8
2018-02-07T06:58:22.402Z,1003.9
2018-02-07T06:59:24.011Z,1003.9
2018-02-07T07:00:25.614Z,1003.9
2018-02-07T07:01:27.223Z,1004.0
2018-02-07T07:02:28.833Z,1004.0
2018-02-07T07:03:31.202Z,1004.0
2018-02-07T07:04:32.805Z,1004.0
2018-02-07T07:05:34.413Z,1004.0
2018-02-07T07:06:36.015Z,1004.1
2018-02-07T07:07:37.623Z,1004.0
2018-02-07T07:08:39.226Z,1004.0
2018-02-07T07:09:40.834Z,1004.0
2018-02-07T07:10:42.440Z,1004.1
2018-02-07T07:11:44.045Z,1004.1
2018-02-07T07:12:45.657Z,1004.1
2018-02-07T07:13:47.262Z,1004.1
2018-02-07T07:14:48.868Z,1004.1
2018-02-07T07:15:50.471Z,1004.1
2018-02-07T07:16:52.083Z,1004.2
2018-02-07T07:17:53.696Z,1004.2
2018-02-07T07:18:55.299Z,1004.2
2018-02-07T07:19:56.912Z,1004.2
2018-02-07T07:20:58.515Z,1004.2
2018-02-07T07:22:00.120Z,1004.3
2018-02-07T07:23:01.730Z,1004.3
2018-02-07T07:24:03.343Z,1004.3
2018-02-07T07:25:04.947Z,1004.3
2018-02-07T07:26:06.553Z,1004.3
2018-02-07T07:27:08.205Z,1004.3
2018-02-07T07:28:09.790Z,1004.3
2018-02-07T07:29:11.400Z,1004.3
2018-02-07T07:30:13.005Z,1004.4
2018-02-07T07:31:14.617Z,1004.4
2018-02-07T07:32:16.225Z,1004.4
2018-02-07T07:33:17.833Z,1004.3
2018-02-07T07:34:19.436Z,1004.3
2018-02-07T07:35:21.049Z,1004.3
2018-02-07T07:36:22.664Z,1004.3
2018-02-07T07:37:24.257Z,1004.3
2018-02-07T07:38:25.864Z,1004.4
2018-02-07T07:39:27.476Z,1004.4
2018-02-07T07:40:29.085Z,1004.4
2018-02-07T07:41:30.690Z,1004.4
2018-02-07T07:42:32.297Z,1004.4
2018-02-07T07:43:33.907Z,1004.4
2018-02-07T07:44:35.515Z,1004.3
2018-02-07T07:45:37.141Z,1004.4
2018-02-07T07:46:38.759Z,1004.4
2018-02-07T07:47:40.357Z,1004.4
2018-02-07T07:48:41.969Z,1004.4
2018-02-07T07:49:43.573Z,1004.4
2018-02-07T07:50:45.186Z,1004.4
2018-02-07T07:51:46.789Z,1004.5
2018-02-07T07:52:48.400Z,1004.5
2018-02-07T07:53:50.012Z,1004.5
2018-02-07T07:54:51.615Z,1004.5
2018-02-07T07:55:53.230Z,1004.4
2018-02-07T07:56:54.834Z,1004.4
2018-02-07T07:57:56.443Z,1004.4
2018-02-07T07:58:58.046Z,1004.5
2018-02-07T07:59:59.657Z,1004.5
2018-02-07T08:01:01.273Z,1004.5
2018-02-07T08:02:02.879Z,1004.5
2018-02-07T08:03:04.483Z,1004.5
2018-02-07T08:04:06.094Z,1004.5
2018-02-07T08:05:07.705Z,1004.5
2018-02-07T08:06:09.312Z,1004.5
2018-02-07T08:07:10.920Z,1004.5
2018-02-07T08:08:12.531Z,1004.5
2018-02-07T08:09:14.139Z,1004.5
2018-02-07T08:10:15.744Z,1004.5
2018-02-07T08:11:17.745Z,1004.5
2018-02-07T08:12:19.349Z,1004.6
2018-02-07T08:13:20.959Z,1004.6
2018-02-07T08:14:22.566Z,1004.6
2018-02-07T08:15:24.181Z,1004.6
2018-02-07T08:16:25.787Z,1004.6
2018-02-07T08:17:27.390Z,1004.6
2018-02-07T08:18:29.016Z,1004.6
2018-02-07T08:19:30.640Z,1004.6
2018-02-07T08:20:32.246Z,1004.6
2018-02-07T08:21:33.855Z,1004.6
2018-02-07T08:22:35.466Z,1004.6
2018-02-07T08:23:37.075Z,1004.7
2018-02-07T08:24:38.678Z,1004.7
2018-02-07T08:25:40.288Z,1004.7
2018-02-07T08:26:41.895Z,1004.7
2018-02-07T08:27:43.504Z,1004.7
2018-02-07T08:28:45.117Z,1004.7
2018-02-07T08:29:46.731Z,1004.7
2018-02-07T08:30:48.333Z,1004.8
2018-02-07T08:31:49.939Z,1004.8
2018-02-07T08:32:51.550Z,1004.8
2018-02-07T08:33:53.157Z,1004.8
2018-02-07T08:34:54.768Z,1004.8
2018-02-07T08:35:56.375Z,1004.8
2018-02-07T08:36:57.987Z,1004.8
2018-02-07T08:37:59.590Z,1004.8
2018-02-07T08:39:01.201Z,1004.8
2018-02-07T08:40:02.803Z,1004.8
2018-02-07T08:41:04.415Z,1004.8
2018-02-07T08:42:06.024Z,1004.8
2018-02-07T08:43:07.635Z,1004.8
2018-02-07T08:44:09.237Z,1004.8
2018-02-07T08:45:10.849Z,1004.8
2018-02-07T08:46:12.460Z,1004.9
2018-02-07T08:47:14.065Z,1004.9
2018-02-07T08:48:15.676Z,1004.9
2018-02-07T08:49:17.290Z,1005.0
2018-02-07T08:50:18.901Z,1005.0
2018-02-07T08:51:20.510Z,1005.0
2018-02-07T08:52:22.119Z,1004.9
2018-02-07T08:53:23.730Z,1004.9
2018-02-07T08:54:25.344Z,1004.9
2018-02-07T08:55:26.956Z,1005.0
2018-02-07T08:56:28.563Z,1005.0
2018-02-07T08:57:30.184Z,1005.0
2018-02-07T08:58:31.794Z,1005.0
2018-02-07T08:59:33.409Z,1005.0
2018-02-07T09:00:35.016Z,1005.1
2018-02-07T09:01:36.629Z,1005.2
2018-02-07T09:02:38.239Z,1005.3
2018-02-07T09:03:39.852Z,1005.3
2018-02-07T09:04:41.461Z,1005.3
2018-02-07T09:05:43.081Z,1005.3
2018-02-07T09:06:44.692Z,1005.3
2018-02-07T09:07:46.299Z,1005.3
2018-02-07T09:08:47.909Z,1005.3
2018-02-07T09:09:49.525Z,1005.3
2018-02-07T09:10:51.140Z,1005.3
2018-02-07T09:11:52.749Z,1005.3
2018-02-07T09:12:54.361Z,1005.3
2018-02-07T09:13:55.976Z,1005.3
2018-02-07T09:14:57.587Z,1005.3
2018-02-07T09:15:59.195Z,1005.3
2018-02-07T09:17:00.805Z,1005.3
2018-02-07T09:18:02.419Z,1005.3
2018-02-07T09:19:04.036Z,1005.3
2018-02-07T09:20:05.642Z,1005.3
2018-02-07T09:21:07.250Z,1005.3
2018-02-07T09:22:08.863Z,1005.3
2018-02-07T09:23:10.471Z,1005.3
2018-02-07T09:24:12.088Z,1005.3
2018-02-07T09:25:13.701Z,1005.3
2018-02-07T09:26:15.311Z,1005.4
2018-02-07T09:27:16.923Z,1005.4
2018-02-07T09:28:18.537Z,1005.4
2018-02-07T09:29:20.150Z,1005.4
2018-02-07T09:30:21.758Z,1005.4
2018-02-07T09:31:23.367Z,1005.5
2018-02-07T09:32:24.981Z,1005.4
2018-02-07T09:33:26.595Z,1005.5
2018-02-07T09:34:28.204Z,1005.5
2018-02-07T09:35:29.847Z,1005.5
2018-02-07T09:36:31.462Z,1005.5
2018-02-07T09:37:33.076Z,1005.5
2018-02-07T09:38:34.686Z,1005.6
2018-02-07T09:39:36.299Z,1005.6
2018-02-07T09:40:37.915Z,1005.7
2018-02-07T09:41:40.476Z,1005.8
2018-02-07T09:42:42.090Z,1005.7
2018-02-07T09:43:43.698Z,1005.8
2018-02-07T09:44:45.315Z,1005.8
2018-02-07T09:45:46.925Z,1005.8
2018-02-07T09:46:48.540Z,1005.8
2018-02-07T09:47:50.185Z,1005.8
2018-02-07T09:48:51.772Z,1005.8
2018-02-07T09:49:53.383Z,1005.8
2018-02-07T09:50:54.996Z,1005.8
2018-02-07T09:51:56.609Z,1005.8
2018-02-07T09:52:58.225Z,1005.8
2018-02-07T09:53:59.834Z,1005.8
2018-02-07T09:55:01.457Z,1005.8
2018-02-07T09:56:03.071Z,1005.8
2018-02-07T09:57:04.680Z,1005.8
2018-02-07T09:58:06.298Z,1005.8
2018-02-07T09:59:07.908Z,1005.8
2018-02-07T10:00:09.524Z,1005.8
2018-02-07T10:01:11.137Z,1005.8
2018-02-07T10:02:12.755Z,1005.8
2018-02-07T10:03:14.367Z,1005.8
2018-02-07T10:04:15.982Z,1005.8
2018-02-07T10:05:17.594Z,1005.8
2018-02-07T10:06:19.212Z,1005.9
2018-02-07T10:07:20.824Z,1005.8
2018-02-07T10:08:22.442Z,1005.8
2018-02-07T10:09:24.055Z,1005.8
2018-02-07T10:10:25.675Z,1005.9
2018-02-07T10:11:27.292Z,1005.9
2018-02-07T10:12:28.921Z,1005.8
2018-02-07T10:13:30.546Z,1005.8
2018-02-07T10:14:32.163Z,1005.8
2018-02-07T10:15:33.780Z,1005.8
2018-02-07T10:16:35.407Z,1005.8
2018-02-07T10:17:37.018Z,1005.8
2018-02-07T10:18:38.632Z,1005.8
2018-02-07T10:19:40.250Z,1005.8
2018-02-07T10:20:41.868Z,1005.8
2018-02-07T10:21:43.482Z,1005.9
2018-02-07T10:22:45.098Z,1005.9
2018-02-07T10:23:46.716Z,1005.9
2018-02-07T10:24:48.332Z,1006.0
2018-02-07T10:25:49.946Z,1006.0
2018-02-07T10:26:51.567Z,1006.0
2018-02-07T10:27:53.184Z,1006.0
2018-02-07T10:28:54.792Z,1006.0
2018-02-07T10:29:56.412Z,1006.0
2018-02-07T10:30:58.032Z,1005.9
2018-02-07T10:31:59.646Z,1006.0
2018-02-07T10:33:01.959Z,1005.9
2018-02-07T10:34:03.579Z,1005.9
2018-02-07T10:35:05.198Z,1005.9
2018-02-07T10:36:06.813Z,1005.9
2018-02-07T10:37:08.429Z,1005.9
2018-02-07T10:38:10.051Z,1005.9
2018-02-07T10:39:11.667Z,1005.9
2018-02-07T10:40:13.319Z,1006.0
2018-02-07T10:41:14.904Z,1005.9
2018-02-07T10:42:16.525Z,1005.9
2018-02-07T10:43:18.143Z,1006.0
2018-02-07T10:44:19.759Z,1005.9
2018-02-07T10:45:21.381Z,1005.9
2018-02-07T10:46:23.666Z,1005.9
2018-02-07T10:47:25.876Z,1005.9
2018-02-07T10:48:27.490Z,1005.9
2018-02-07T10:49:29.123Z,1005.9
2018-02-07T10:50:30.738Z,1005.9
2018-02-07T10:51:32.359Z,1005.9
2018-02-07T10:52:33.977Z,1005.9
2018-02-07T10:53:35.598Z,1005.9
2018-02-07T10:54:37.217Z,1005.9
2018-02-07T10:55:38.831Z,1006.0
2018-02-07T10:56:40.452Z,1006.0
2018-02-07T10:57:42.072Z,1005.9
2018-02-07T10:58:43.687Z,1005.9
2018-02-07T10:59:45.307Z,1006.0
2018-02-07T11:00:46.925Z,1006.0
2018-02-07T11:01:48.539Z,1006.0
2018-02-07T11:02:50.159Z,1006.1
2018-02-07T11:03:51.776Z,1006.1
2018-02-07T11:04:53.397Z,1006.1
2018-02-07T11:05:55.011Z,1006.2
2018-02-07T11:06:56.634Z,1006.1
2018-02-07T11:07:58.251Z,1006.1
2018-02-07T11:08:59.871Z,1006.1
2018-02-07T11:10:01.491Z,1006.1
2018-02-07T11:11:03.111Z,1006.1
2018-02-07T11:12:04.731Z,1006.1
2018-02-07T11:13:06.349Z,1006.2
2018-02-07T11:14:07.971Z,1006.1
2018-02-07T11:15:09.588Z,1006.1
2018-02-07T11:16:11.212Z,1006.1
2018-02-07T11:17:12.829Z,1006.1
2018-02-07T11:18:14.450Z,1006.1
2018-02-07T11:19:16.066Z,1006.2
2018-02-07T11:20:17.684Z,1006.2
2018-02-07T11:21:19.309Z,1006.3
2018-02-07T11:22:20.931Z,1006.3
2018-02-07T11:23:22.564Z,1006.3
2018-02-07T11:24:24.191Z,1006.2
2018-02-07T11:25:25.817Z,1006.1
2018-02-07T11:26:27.433Z,1006.2
2018-02-07T11:27:29.072Z,1006.2
2018-02-07T11:28:30.687Z,1006.2
2018-02-07T11:29:32.308Z,1006.2
2018-02-07T11:30:33.928Z,1006.2
2018-02-07T11:31:35.547Z,1006.2
2018-02-07T11:32:37.170Z,1006.2
2018-02-07T11:33:38.784Z,1006.2
2018-02-07T11:34:40.402Z,1006.2
2018-02-07T11:35:42.030Z,1006.2
2018-02-07T11:36:43.650Z,1006.2
2018-02-07T11:37:45.266Z,1006.2
2018-02-07T11:38:46.881Z,1006.1
2018-02-07T11:39:48.501Z,1006.2
2018-02-07T11:40:50.123Z,1006.1
2018-02-07T11:41:51.739Z,1006.1
2018-02-07T11:42:53.360Z,1006.2
2018-02-07T11:43:54.974Z,1006.2
2018-02-07T11:44:56.595Z,1006.2
2018-02-07T11:45:58.213Z,1006.2
2018-02-07T11:46:59.828Z,1006.2
2018-02-07T11:48:01.446Z,1006.1
2018-02-07T11:49:03.062Z,1006.2
2018-02-07T11:50:04.686Z,1006.1
2018-02-07T11:51:06.306Z,1006.1
2018-02-07T11:52:07.919Z,1006.1
2018-02-07T11:53:09.541Z,1006.1
2018-02-07T11:54:11.156Z,1006.2
2018-02-07T11:55:12.777Z,1006.2
2018-02-07T11:56:14.392Z,1006.1
2018-02-07T11:57:16.016Z,1006.1
2018-02-07T11:58:17.630Z,1006.1
2018-02-07T11:59:19.250Z,1006.1
2018-02-07T12:00:20.869Z,1006.1
2018-02-07T12:01:22.486Z,1006.1
2018-02-07T12:02:24.105Z,1006.1
2018-02-07T12:03:25.725Z,1006.1
2018-02-07T12:04:27.339Z,1006.1
2018-02-07T12:05:28.967Z,1006.0
2018-02-07T12:06:30.610Z,1006.1
2018-02-07T12:07:32.223Z,1006.0
2018-02-07T12:08:33.841Z,1006.0
2018-02-07T12:09:35.456Z,1006.0
2018-02-07T12:10:37.076Z,1006.0
2018-02-07T12:11:38.690Z,1006.0
2018-02-07T12:12:40.309Z,1006.0
2018-02-07T12:13:42.856Z,1006.0
2018-02-07T12:14:44.477Z,1005.9
2018-02-07T12:15:46.090Z,1006.0
2018-02-07T12:16:47.704Z,1005.9
2018-02-07T12:17:49.320Z,1005.9
2018-02-07T12:18:50.940Z,1005.9
2018-02-07T12:19:52.555Z,1005.9
2018-02-07T12:20:54.176Z,1005.9
2018-02-07T12:21:55.844Z,1005.9
2018-02-07T12:22:57.405Z,1005.9
2018-02-07T12:23:59.018Z,1005.9
2018-02-07T12:25:00.642Z,1005.9
2018-02-07T12:26:02.255Z,1005.9
2018-02-07T12:27:03.876Z,1005.9
2018-02-07T12:28:05.489Z,1005.9
2018-02-07T12:29:07.108Z,1005.9
2018-02-07T12:30:08.722Z,1005.9
2018-02-07T12:31:10.340Z,1005.9
2018-02-07T12:32:11.958Z,1005.9
2018-02-07T12:33:13.618Z,1005.9
2018-02-07T12:34:15.192Z,1005.9
2018-02-07T12:35:16.809Z,1005.9
2018-02-07T12:36:18.423Z,1005.9
2018-02-07T12:37:20.041Z,1005.9
2018-02-07T12:38:21.655Z,1005.9
2018-02-07T12:39:23.280Z,1005.9
2018-02-07T12:40:24.896Z,1005.8
2018-02-07T12:41:26.509Z,1005.8
2018-02-07T12:42:28.127Z,1005.9
2018-02-07T12:43:29.777Z,1005.9
2018-02-07T12:44:31.396Z,1005.9
2018-02-07T12:45:33.010Z,1005.9
2018-02-07T12:46:34.633Z,1005.9
2018-02-07T12:47:36.247Z,1006.0
2018-02-07T12:48:37.870Z,1006.0